createdAt,value
2023-04-14T00:01:18.588Z,1.15
2023-04-14T00:04:23.550Z,0.98
2023-04-14T00:07:28.394Z,1.70
2023-04-14T00:10:32.833Z,1.17
2023-04-14T00:13:37.408Z,1.05
2023-04-14T00:16:43.114Z,1.00
2023-04-14T00:19:47.459Z,0.90
2023-04-14T00:22:52.061Z,1.20
2023-04-14T00:25:56.937Z,0.90
2023-04-14T00:29:01.764Z,0.95
2023-04-14T00:32:07.009Z,0.80
2023-04-14T00:35:11.413Z,0.90
2023-04-14T00:38:15.697Z,1.10
2023-04-14T00:41:20.185Z,0.95
2023-04-14T00:44:25.555Z,1.00
2023-04-14T00:47:30.479Z,1.00
2023-04-14T00:50:35.171Z,0.70
2023-04-14T00:53:41.033Z,0.90
2023-04-14T00:56:47.373Z,1.05
2023-04-14T00:59:53.289Z,1.00
2023-04-14T01:02:57.994Z,1.10
2023-04-14T01:06:02.744Z,1.13
2023-04-14T01:09:07.870Z,1.23
2023-04-14T01:12:51.420Z,1.10
2023-04-14T01:16:03.325Z,1.23
2023-04-14T01:19:43.602Z,1.10
2023-04-14T01:23:04.434Z,1.40
2023-04-14T01:26:27.949Z,1.30
2023-04-14T01:29:51.802Z,1.38
2023-04-14T01:33:01.181Z,2.05
2023-04-14T01:36:15.881Z,1.20
2023-04-14T01:39:26.518Z,1.38
2023-04-14T01:42:36.556Z,1.20
2023-04-14T01:45:51.512Z,1.35
2023-04-14T01:48:56.704Z,1.80
2023-04-14T01:52:04.242Z,1.13
2023-04-14T01:55:10.663Z,1.58
2023-04-14T01:58:20.566Z,1.35
2023-04-14T02:01:27.748Z,1.60
2023-04-14T02:04:35.923Z,1.35
2023-04-14T02:07:42.171Z,1.52
2023-04-14T02:10:51.661Z,1.58
2023-04-14T02:13:57.988Z,1.58
2023-04-14T02:17:04.327Z,2.05
2023-04-14T02:20:11.067Z,1.60
2023-04-14T02:23:16.179Z,2.28
2023-04-14T02:26:26.566Z,2.30
2023-04-14T02:29:33.820Z,1.88
2023-04-14T02:32:48.196Z,2.10
2023-04-14T02:36:03.363Z,2.28
2023-04-14T02:39:19.374Z,2.28
2023-04-14T02:42:28.459Z,1.90
2023-04-14T02:45:36.307Z,2.72
2023-04-14T02:48:43.034Z,2.13
2023-04-14T02:51:49.250Z,2.00
2023-04-14T02:54:56.098Z,1.98
2023-04-14T02:58:02.143Z,2.28
2023-04-14T03:01:11.035Z,2.20
2023-04-14T03:04:17.771Z,2.33
2023-04-14T03:07:30.371Z,2.28
2023-04-14T03:10:37.469Z,2.90
2023-04-14T03:13:43.614Z,2.30
2023-04-14T03:16:53.765Z,1.95
2023-04-14T03:20:01.698Z,2.45
2023-04-14T03:23:11.865Z,2.60
2023-04-14T03:26:25.257Z,2.45
2023-04-14T03:29:44.955Z,2.40
2023-04-14T03:32:50.741Z,2.78
2023-04-14T03:35:58.731Z,2.50
2023-04-14T03:39:05.816Z,2.45
2023-04-14T03:42:14.618Z,2.30
2023-04-14T03:45:21.198Z,2.67
2023-04-14T03:48:29.797Z,2.50
2023-04-14T03:51:38.940Z,3.10
2023-04-14T03:54:45.629Z,2.63
2023-04-14T03:57:51.440Z,2.83
2023-04-14T04:00:56.382Z,2.90
2023-04-14T04:04:03.333Z,2.38
2023-04-14T04:07:12.042Z,2.97
2023-04-14T04:10:17.553Z,3.17
2023-04-14T04:13:23.819Z,2.70
2023-04-14T04:16:31.007Z,2.67
2023-04-14T04:19:37.184Z,2.83
2023-04-14T04:22:44.261Z,2.75
2023-04-14T04:25:50.190Z,2.97
2023-04-14T04:29:08.366Z,3.55
2023-04-14T04:32:13.692Z,4.00
2023-04-14T04:35:18.925Z,3.55
2023-04-14T04:38:25.533Z,3.35
2023-04-14T04:41:31.193Z,3.45
2023-04-14T04:44:39.211Z,3.35
2023-04-14T04:47:43.368Z,3.10
2023-04-14T04:50:47.884Z,3.17
2023-04-14T04:53:52.608Z,3.20
2023-04-14T04:56:58.713Z,2.65
2023-04-14T05:00:03.717Z,2.85
2023-04-14T05:03:08.260Z,2.70
2023-04-14T05:06:13.248Z,2.75
2023-04-14T05:09:17.945Z,2.83
2023-04-14T05:12:22.568Z,3.35
2023-04-14T05:15:27.404Z,3.53
2023-04-14T05:18:32.807Z,3.33
2023-04-14T05:21:37.316Z,3.15
2023-04-14T05:24:41.985Z,3.22
2023-04-14T05:27:46.346Z,3.33
2023-04-14T05:30:50.801Z,3.08
2023-04-14T05:33:55.242Z,3.42
2023-04-14T05:36:59.718Z,3.35
2023-04-14T05:40:05.025Z,3.20
2023-04-14T05:43:09.272Z,3.65
2023-04-14T05:46:13.747Z,2.95
2023-04-14T05:49:18.480Z,3.40
2023-04-14T05:52:23.125Z,2.97
2023-04-14T05:55:27.652Z,2.92
2023-04-14T05:58:32.031Z,2.53
2023-04-14T06:01:36.745Z,2.60
2023-04-14T06:04:41.219Z,2.53
2023-04-14T06:07:46.981Z,2.75
2023-04-14T06:10:51.400Z,2.35
2023-04-14T06:13:56.063Z,2.42
2023-04-14T06:17:01.109Z,2.60
2023-04-14T06:20:06.773Z,2.45
2023-04-14T06:23:11.484Z,2.42
2023-04-14T06:26:16.424Z,2.30
2023-04-14T06:29:21.224Z,1.92
2023-04-14T06:32:25.778Z,2.10
2023-04-14T06:35:35.191Z,2.15
2023-04-14T06:38:39.763Z,2.20
2023-04-14T06:41:44.200Z,2.38
2023-04-14T06:44:50.948Z,2.47
2023-04-14T06:47:56.214Z,2.58
2023-04-14T06:51:00.971Z,2.53
2023-04-14T06:54:05.460Z,2.40
2023-04-14T06:57:10.550Z,2.72
2023-04-14T07:00:15.212Z,2.53
2023-04-14T07:03:20.075Z,2.47
2023-04-14T07:06:24.983Z,2.45
2023-04-14T07:09:29.981Z,2.53
2023-04-14T07:12:34.576Z,2.50
2023-04-14T07:15:39.546Z,2.53
2023-04-14T07:18:44.275Z,2.38
2023-04-14T07:21:48.935Z,2.33
2023-04-14T07:24:54.212Z,2.55
2023-04-14T07:28:03.548Z,2.30
2023-04-14T07:31:10.763Z,2.05
2023-04-14T07:34:15.683Z,2.45
2023-04-14T07:37:20.910Z,2.70
2023-04-14T07:40:25.888Z,3.03
2023-04-14T07:43:35.231Z,2.40
2023-04-14T07:46:39.691Z,2.13
2023-04-14T07:49:43.968Z,1.90
2023-04-14T07:52:48.579Z,1.90
2023-04-14T07:55:53.094Z,2.00
2023-04-14T07:58:57.622Z,2.08
2023-04-14T08:02:02.331Z,2.10
2023-04-14T08:05:07.142Z,2.20
2023-04-14T08:08:12.401Z,2.00
2023-04-14T08:11:16.922Z,1.70
2023-04-14T08:14:21.688Z,1.77
2023-04-14T08:17:26.321Z,1.92
2023-04-14T08:20:30.734Z,2.47
2023-04-14T08:23:35.224Z,2.33
2023-04-14T08:26:40.795Z,2.20
2023-04-14T08:29:45.042Z,2.25
2023-04-14T08:32:49.975Z,2.28
2023-04-14T08:35:59.673Z,1.90
2023-04-14T08:39:04.820Z,2.17
2023-04-14T08:42:13.244Z,1.50
2023-04-14T08:45:19.917Z,2.38
2023-04-14T08:48:33.357Z,1.58
2023-04-14T08:51:45.374Z,1.33
2023-04-14T08:54:51.473Z,1.73
2023-04-14T08:57:57.149Z,1.30
2023-04-14T09:01:03.266Z,1.40
2023-04-14T09:04:08.974Z,1.60
2023-04-14T09:07:14.293Z,1.20
2023-04-14T09:10:22.248Z,1.10
2023-04-14T09:13:28.416Z,1.40
2023-04-14T09:16:33.400Z,1.35
2023-04-14T09:19:38.829Z,1.20
2023-04-14T09:23:04.395Z,1.42
2023-04-14T09:26:10.464Z,1.50
2023-04-14T09:29:14.832Z,1.38
2023-04-14T09:32:19.644Z,1.40
2023-04-14T09:35:46.619Z,1.38
2023-04-14T09:38:51.855Z,1.40
2023-04-14T09:41:56.841Z,1.10
2023-04-14T09:45:05.032Z,1.30
2023-04-14T09:48:12.987Z,0.90
2023-04-14T09:51:21.045Z,1.05
2023-04-14T09:54:27.207Z,0.98
2023-04-14T09:57:31.855Z,1.00
2023-04-14T10:00:36.610Z,1.05
2023-04-14T10:03:46.768Z,1.10
2023-04-14T10:06:56.888Z,1.20
2023-04-14T10:10:14.023Z,1.30
2023-04-14T10:13:19.470Z,0.85
2023-04-14T10:16:25.806Z,0.90
2023-04-14T10:19:30.939Z,1.15
2023-04-14T10:22:36.317Z,0.90
2023-04-14T10:25:40.928Z,1.20
2023-04-14T10:28:49.186Z,0.70
2023-04-14T10:32:07.396Z,1.58
2023-04-14T10:35:18.650Z,1.10
2023-04-14T10:38:36.468Z,0.90
2023-04-14T10:41:44.088Z,1.05
2023-04-14T10:45:09.001Z,1.27
2023-04-14T10:48:13.817Z,1.08
2023-04-14T10:51:18.792Z,0.95
2023-04-14T10:54:23.438Z,1.10
2023-04-14T10:57:29.610Z,0.90
2023-04-14T11:00:38.407Z,0.88
2023-04-14T11:03:46.305Z,0.90
2023-04-14T11:06:53.504Z,0.95
2023-04-14T11:10:18.976Z,1.10
2023-04-14T11:13:23.647Z,1.10
2023-04-14T11:16:29.382Z,1.10
2023-04-14T11:19:34.066Z,1.27
2023-04-14T11:22:47.819Z,1.15
2023-04-14T11:28:57.830Z,1.30
2023-04-14T11:32:05.675Z,1.30
2023-04-14T11:35:10.995Z,1.40
2023-04-14T11:38:15.651Z,1.50
2023-04-14T11:41:22.384Z,0.93
2023-04-14T11:44:27.541Z,1.05
2023-04-14T11:47:32.386Z,1.55
2023-04-14T11:50:39.156Z,0.98
2023-04-14T11:53:43.758Z,1.08
2023-04-14T11:56:48.493Z,1.60
2023-04-14T11:59:53.154Z,0.98
2023-04-14T12:03:02.414Z,1.27
2023-04-14T12:06:07.216Z,1.38
2023-04-14T12:09:13.313Z,1.65
2023-04-14T12:12:20.273Z,1.95
2023-04-14T12:15:25.517Z,1.58
2023-04-14T12:18:30.009Z,1.08
2023-04-14T12:21:34.712Z,1.30
2023-04-14T12:24:44.904Z,1.60
2023-04-14T12:27:55.751Z,1.85
2023-04-14T12:31:04.233Z,1.65
2023-04-14T12:34:08.993Z,1.55
2023-04-14T12:37:13.370Z,1.10
2023-04-14T12:40:36.648Z,1.77
2023-04-14T12:43:41.830Z,1.50
2023-04-14T12:46:49.596Z,1.65
2023-04-14T12:49:54.517Z,1.80
2023-04-14T12:52:59.966Z,1.40
2023-04-14T12:56:07.246Z,1.30
2023-04-14T12:59:11.829Z,1.35
2023-04-14T13:02:16.573Z,1.40
2023-04-14T13:05:21.686Z,1.40
2023-04-14T13:08:26.143Z,1.35
2023-04-14T13:11:31.865Z,1.67
2023-04-14T13:14:36.794Z,1.65
2023-04-14T13:17:44.772Z,1.63
2023-04-14T13:20:55.020Z,1.48
2023-04-14T13:23:59.579Z,2.08
2023-04-14T13:27:04.703Z,1.50
2023-04-14T13:30:10.452Z,1.20
2023-04-14T13:33:14.899Z,1.10
2023-04-14T13:36:19.640Z,1.45
2023-04-14T13:39:24.249Z,1.58
2023-04-14T13:42:30.082Z,1.73
2023-04-14T13:45:35.604Z,1.10
2023-04-14T13:48:43.044Z,1.90
2023-04-14T13:51:47.695Z,1.13
2023-04-14T13:54:52.127Z,1.58
2023-04-14T13:57:56.622Z,1.25
2023-04-14T14:01:10.717Z,1.42
2023-04-14T14:04:15.471Z,1.40
2023-04-14T14:07:20.417Z,1.50
2023-04-14T14:10:25.135Z,1.10
2023-04-14T14:13:29.743Z,1.20
2023-04-14T14:16:37.197Z,1.30
2023-04-14T14:19:42.110Z,1.90
2023-04-14T14:22:46.505Z,1.40
2023-04-14T14:25:52.167Z,1.30
2023-04-14T14:28:57.880Z,1.00
2023-04-14T14:32:03.036Z,1.05
2023-04-14T14:35:08.316Z,1.40
2023-04-14T14:38:13.151Z,1.00
2023-04-14T14:41:18.238Z,1.00
2023-04-14T14:44:22.969Z,1.58
2023-04-14T14:47:28.387Z,1.30
2023-04-14T14:50:33.558Z,1.05
2023-04-14T14:53:38.321Z,1.10
2023-04-14T14:56:42.943Z,1.20
2023-04-14T14:59:48.087Z,1.20
2023-04-14T15:02:53.502Z,1.20
2023-04-14T15:05:58.181Z,1.40
2023-04-14T15:09:02.858Z,1.30
2023-04-14T15:12:08.326Z,1.20
2023-04-14T15:15:13.172Z,1.40
2023-04-14T15:18:17.901Z,2.00
2023-04-14T15:21:23.072Z,1.20
2023-04-14T15:24:27.906Z,1.40
2023-04-14T15:27:33.025Z,0.90
2023-04-14T15:30:37.166Z,1.20
2023-04-14T15:33:42.099Z,1.20
2023-04-14T15:36:46.994Z,1.65
2023-04-14T15:39:52.502Z,1.17
2023-04-14T15:42:57.296Z,1.35
2023-04-14T15:46:02.214Z,1.23
2023-04-14T15:49:06.995Z,1.40
2023-04-14T15:52:12.896Z,1.20
2023-04-14T15:55:18.025Z,1.05
2023-04-14T15:58:22.976Z,1.20
2023-04-14T16:01:27.457Z,1.23
2023-04-14T16:04:32.278Z,1.55
2023-04-14T16:07:36.758Z,1.27
2023-04-14T16:10:42.185Z,1.48
2023-04-14T16:13:47.186Z,1.33
2023-04-14T16:16:52.096Z,1.35
2023-04-14T16:19:57.101Z,1.13
2023-04-14T16:23:01.805Z,1.30
2023-04-14T16:26:06.466Z,1.40
2023-04-14T16:29:10.873Z,1.10
2023-04-14T16:32:15.485Z,1.20
2023-04-14T16:35:20.482Z,1.30
2023-04-14T16:38:24.827Z,1.40
2023-04-14T16:41:29.192Z,0.98
2023-04-14T16:44:35.212Z,1.20
2023-04-14T16:47:40.617Z,1.33
2023-04-14T16:50:47.372Z,1.17
2023-04-14T16:53:52.216Z,1.10
2023-04-14T16:56:56.906Z,1.25
2023-04-14T17:00:03.442Z,1.35
2023-04-14T17:03:09.333Z,1.20
2023-04-14T17:06:13.960Z,1.05
2023-04-14T17:09:18.779Z,1.10
2023-04-14T17:12:23.607Z,0.90
2023-04-14T17:15:28.483Z,1.00
2023-04-14T17:18:33.632Z,1.15
2023-04-14T17:21:38.640Z,1.35
2023-04-14T17:24:44.059Z,0.90
2023-04-14T17:27:48.662Z,1.08
2023-04-14T17:30:53.499Z,0.93
2023-04-14T17:33:58.891Z,1.00
2023-04-14T17:37:04.958Z,1.20
2023-04-14T17:40:10.816Z,1.13
2023-04-14T17:43:15.800Z,1.30
2023-04-14T17:46:23.305Z,1.55
2023-04-14T17:49:28.480Z,1.33
2023-04-14T17:52:33.810Z,1.27
2023-04-14T17:55:38.851Z,1.15
2023-04-14T17:58:46.894Z,1.10
2023-04-14T18:01:51.826Z,1.65
2023-04-14T18:04:56.921Z,1.08
2023-04-14T18:08:01.563Z,0.82
2023-04-14T18:11:06.773Z,1.10
2023-04-14T18:14:11.698Z,0.93
2023-04-14T18:17:16.678Z,0.90
2023-04-14T18:20:25.058Z,1.00
2023-04-14T18:23:29.941Z,1.02
2023-04-14T18:26:34.750Z,1.20
2023-04-14T18:29:39.691Z,1.20
2023-04-14T18:32:44.706Z,1.00
2023-04-14T18:35:54.390Z,0.82
2023-04-14T18:39:02.283Z,1.08
2023-04-14T18:42:07.631Z,0.90
2023-04-14T18:45:12.590Z,1.27
2023-04-14T18:48:17.597Z,0.95
2023-04-14T18:51:22.443Z,1.10
2023-04-14T18:54:27.094Z,0.90
2023-04-14T18:57:32.112Z,1.05
2023-04-14T19:00:36.871Z,1.30
2023-04-14T19:03:41.849Z,1.65
2023-04-14T19:06:48.797Z,1.02
2023-04-14T19:09:53.461Z,1.15
2023-04-14T19:12:58.252Z,1.20
2023-04-14T19:16:12.617Z,1.27
2023-04-14T19:19:17.206Z,1.40
2023-04-14T19:22:22.010Z,1.30
2023-04-14T19:25:26.674Z,1.30
2023-04-14T19:28:31.667Z,1.50
2023-04-14T19:31:36.180Z,1.25
2023-04-14T19:34:41.243Z,1.10
2023-04-14T19:37:46.397Z,1.38
2023-04-14T19:40:51.017Z,1.33
2023-04-14T19:43:55.863Z,1.67
2023-04-14T19:47:00.579Z,1.48
2023-04-14T19:50:05.688Z,1.67
2023-04-14T19:53:10.144Z,1.63
2023-04-14T19:56:14.914Z,1.40
2023-04-14T19:59:20.743Z,1.10
2023-04-14T20:02:29.779Z,1.73
2023-04-14T20:05:35.026Z,1.42
2023-04-14T20:08:40.516Z,2.17
2023-04-14T20:11:45.804Z,1.92
2023-04-14T20:14:50.181Z,1.80
2023-04-14T20:17:54.927Z,1.63
2023-04-14T20:20:59.674Z,1.70
2023-04-14T20:24:04.715Z,1.70
2023-04-14T20:27:09.145Z,1.60
2023-04-14T20:30:13.547Z,1.45
2023-04-14T20:33:21.334Z,1.67
2023-04-14T20:36:25.939Z,1.50
2023-04-14T20:39:30.593Z,1.50
2023-04-14T20:42:35.514Z,1.52
2023-04-14T20:45:40.677Z,1.48
2023-04-14T20:48:45.592Z,1.73
2023-04-14T20:51:50.065Z,1.30
2023-04-14T20:54:55.501Z,1.35
2023-04-14T20:57:59.960Z,1.48
2023-04-14T21:01:04.501Z,1.40
2023-04-14T21:04:10.284Z,1.27
2023-04-14T21:07:15.094Z,2.00
2023-04-14T21:10:19.763Z,1.30
2023-04-14T21:15:31.081Z,1.70
2023-04-14T21:16:48.917Z,1.60
2023-04-14T21:19:53.757Z,1.45
2023-04-14T21:22:58.088Z,1.58
2023-04-14T21:26:02.826Z,1.40
2023-04-14T21:29:07.900Z,1.50
2023-04-14T21:32:12.812Z,1.90
2023-04-14T21:35:17.676Z,1.50
2023-04-14T21:38:23.429Z,2.00
2023-04-14T21:41:27.616Z,2.85
2023-04-14T21:44:31.894Z,3.05
2023-04-14T21:47:36.653Z,3.15
2023-04-14T21:50:42.640Z,2.40
2023-04-14T21:53:47.394Z,2.60
2023-04-14T21:56:51.932Z,2.50
2023-04-14T21:59:57.351Z,2.70
2023-04-14T22:03:02.425Z,2.30
2023-04-14T22:06:09.984Z,2.33
2023-04-14T22:09:14.905Z,2.13
2023-04-14T22:12:19.710Z,2.38
2023-04-14T22:15:24.785Z,2.47
2023-04-14T22:18:30.842Z,2.58
2023-04-14T22:21:35.446Z,3.10
2023-04-14T22:24:39.867Z,2.88
2023-04-14T22:27:44.721Z,2.95
2023-04-14T22:30:49.202Z,2.50
2023-04-14T22:33:54.267Z,3.10
2023-04-14T22:36:59.129Z,2.78
2023-04-14T22:40:04.487Z,2.95
2023-04-14T22:43:09.525Z,2.83
2023-04-14T22:46:17.762Z,3.08
2023-04-14T22:49:22.533Z,2.50
2023-04-14T22:52:27.974Z,2.55
2023-04-14T22:55:32.963Z,2.95
2023-04-14T22:58:40.162Z,3.50
2023-04-14T23:01:44.906Z,2.45
2023-04-14T23:04:50.073Z,3.03
2023-04-14T23:07:54.730Z,2.88
2023-04-14T23:10:59.081Z,2.88
2023-04-14T23:14:03.746Z,2.40
2023-04-14T23:17:08.491Z,2.90
2023-04-14T23:20:13.029Z,2.90
2023-04-14T23:23:17.862Z,2.53
2023-04-14T23:26:22.780Z,2.83
2023-04-14T23:29:27.582Z,2.28
2023-04-14T23:32:33.002Z,2.10
2023-04-14T23:35:38.738Z,2.47
2023-04-14T23:38:43.376Z,2.70
2023-04-14T23:41:47.761Z,2.30
2023-04-14T23:44:52.191Z,2.88
2023-04-14T23:47:58.530Z,3.10
2023-04-14T23:51:18.615Z,2.58
2023-04-14T23:54:24.147Z,2.58
2023-04-14T23:57:28.606Z,3.20
